DAH6039 DABT-DAAG
Flight info
| Callsign | DAH6039 |
|---|---|
| Flight time | 0h 35m |
| Altitude | 28000 |
| Route | BTN DCT BJA UJ7 LIMON G26 ZEM |
| Aircraft | B738/M-SDE2E3FGHIRWXY/LB1 |
Departure
| Time | 2026-05-04 13:17 |
|---|---|
| Airport | Batna Mostefa Ben Boulaid Airport (DABT) |
Arrival
| Time | 2026-05-04 13:52 |
|---|---|
| Airport | Houari Boumediene Airport (DAAG) |
| Time | Latitude | Longitude | Altitude | Speed | Heading |
|---|---|---|---|---|---|
| 2026-05-04 12:36 | 35.75698 | 6.30971 | 2696 ft | 0 kts | 278° |
| 2026-05-04 13:05 | 35.75698 | 6.30976 | 2696 ft | 4 kts | 278° |
| 2026-05-04 13:06 | 35.75694 | 6.31010 | 2696 ft | 4 kts | 277° |
| 2026-05-04 13:06 | 35.75691 | 6.31042 | 2696 ft | 4 kts | 274° |
| 2026-05-04 13:06 | 35.75691 | 6.31070 | 2696 ft | 2 kts | 259° |
| 2026-05-04 13:06 | 35.75695 | 6.31083 | 2696 ft | 2 kts | 228° |
| 2026-05-04 13:07 | 35.75704 | 6.31092 | 2696 ft | 2 kts | 197° |
| 2026-05-04 13:07 | 35.75715 | 6.31095 | 2696 ft | 2 kts | 188° |
| 2026-05-04 13:07 | 35.75723 | 6.31096 | 2696 ft | 0 kts | 187° |
| 2026-05-04 13:10 | 35.75713 | 6.31095 | 2696 ft | 5 kts | 187° |
| 2026-05-04 13:10 | 35.75661 | 6.31085 | 2696 ft | 8 kts | 188° |
| 2026-05-04 13:10 | 35.75604 | 6.31075 | 2696 ft | 8 kts | 188° |
| 2026-05-04 13:11 | 35.75549 | 6.31065 | 2696 ft | 8 kts | 188° |
| 2026-05-04 13:11 | 35.75496 | 6.31053 | 2696 ft | 8 kts | 198° |
| 2026-05-04 13:11 | 35.75454 | 6.31015 | 2696 ft | 7 kts | 230° |
| 2026-05-04 13:11 | 35.75424 | 6.30966 | 2696 ft | 7 kts | 233° |
| 2026-05-04 13:12 | 35.75395 | 6.30917 | 2696 ft | 7 kts | 234° |
| 2026-05-04 13:12 | 35.75352 | 6.30842 | 2696 ft | 13 kts | 235° |
| 2026-05-04 13:12 | 35.75302 | 6.30753 | 2697 ft | 13 kts | 235° |
| 2026-05-04 13:12 | 35.75253 | 6.30666 | 2697 ft | 12 kts | 234° |
| 2026-05-04 13:13 | 35.75198 | 6.30571 | 2697 ft | 16 kts | 234° |
| 2026-05-04 13:13 | 35.75127 | 6.30447 | 2696 ft | 19 kts | 234° |
| 2026-05-04 13:13 | 35.75053 | 6.30319 | 2696 ft | 18 kts | 235° |
| 2026-05-04 13:13 | 35.74983 | 6.30195 | 2696 ft | 17 kts | 235° |
| 2026-05-04 13:14 | 35.74914 | 6.30077 | 2696 ft | 17 kts | 234° |
| 2026-05-04 13:14 | 35.74849 | 6.29964 | 2696 ft | 15 kts | 232° |
| 2026-05-04 13:14 | 35.74760 | 6.29946 | 2696 ft | 14 kts | 154° |
| 2026-05-04 13:14 | 35.74676 | 6.29997 | 2698 ft | 14 kts | 185° |
| 2026-05-04 13:15 | 35.74607 | 6.29927 | 2699 ft | 13 kts | 234° |
| 2026-05-04 13:15 | 35.74555 | 6.29837 | 2699 ft | 13 kts | 234° |
| 2026-05-04 13:15 | 35.74504 | 6.29750 | 2700 ft | 12 kts | 234° |
| 2026-05-04 13:15 | 35.74448 | 6.29674 | 2700 ft | 12 kts | 204° |
| 2026-05-04 13:16 | 35.74403 | 6.29612 | 2699 ft | 12 kts | 308° |
| 2026-05-04 13:16 | 35.74460 | 6.29664 | 2699 ft | 13 kts | 54° |
| 2026-05-04 13:16 | 35.74695 | 6.30073 | 2698 ft | 106 kts | 54° |
| 2026-05-04 13:16 | 35.75294 | 6.31093 | 2757 ft | 181 kts | 54° |
| 2026-05-04 13:17 | 35.76009 | 6.32400 | 3894 ft | 183 kts | 57° |
| 2026-05-04 13:17 | 35.76724 | 6.33810 | 4754 ft | 209 kts | 59° |
| 2026-05-04 13:17 | 35.77664 | 6.35249 | 5395 ft | 219 kts | 33° |
| 2026-05-04 13:17 | 35.79121 | 6.35812 | 5983 ft | 234 kts | 357° |
| 2026-05-04 13:18 | 35.80699 | 6.35117 | 6341 ft | 252 kts | 317° |
| 2026-05-04 13:18 | 35.81726 | 6.33300 | 6813 ft | 271 kts | 291° |
| 2026-05-04 13:18 | 35.82476 | 6.31132 | 7657 ft | 278 kts | 292° |
| 2026-05-04 13:18 | 35.83332 | 6.28988 | 8667 ft | 280 kts | 296° |
| 2026-05-04 13:19 | 35.84321 | 6.26894 | 9682 ft | 284 kts | 299° |
| 2026-05-04 13:19 | 35.85425 | 6.24851 | 10556 ft | 291 kts | 302° |
| 2026-05-04 13:19 | 35.86660 | 6.22771 | 10790 ft | 318 kts | 304° |
| 2026-05-04 13:19 | 35.88093 | 6.20535 | 10998 ft | 346 kts | 306° |
| 2026-05-04 13:20 | 35.89690 | 6.18167 | 11245 ft | 369 kts | 308° |
| 2026-05-04 13:20 | 35.91398 | 6.15752 | 11851 ft | 377 kts | 309° |
| 2026-05-04 13:20 | 35.93161 | 6.13337 | 12677 ft | 379 kts | 309° |
| 2026-05-04 13:20 | 35.94947 | 6.10933 | 13495 ft | 382 kts | 310° |
| 2026-05-04 13:21 | 35.96764 | 6.08506 | 14214 ft | 386 kts | 310° |
| 2026-05-04 13:21 | 35.98600 | 6.06063 | 14913 ft | 389 kts | 310° |
| 2026-05-04 13:21 | 36.00444 | 6.03613 | 15692 ft | 390 kts | 310° |
| 2026-05-04 13:21 | 36.02296 | 6.01152 | 16449 ft | 391 kts | 310° |
| 2026-05-04 13:22 | 36.04156 | 5.98677 | 17167 ft | 393 kts | 310° |
| 2026-05-04 13:22 | 36.06024 | 5.96187 | 17837 ft | 396 kts | 309° |
| 2026-05-04 13:22 | 36.07877 | 5.93716 | 18462 ft | 399 kts | 309° |
| 2026-05-04 13:22 | 36.09774 | 5.91184 | 19009 ft | 402 kts | 309° |
| 2026-05-04 13:23 | 36.11688 | 5.88626 | 19564 ft | 405 kts | 309° |
| 2026-05-04 13:23 | 36.13610 | 5.86057 | 20122 ft | 408 kts | 309° |
| 2026-05-04 13:23 | 36.15541 | 5.83473 | 20669 ft | 411 kts | 309° |
| 2026-05-04 13:23 | 36.17492 | 5.80860 | 21205 ft | 414 kts | 309° |
| 2026-05-04 13:24 | 36.19454 | 5.78230 | 21711 ft | 417 kts | 309° |
| 2026-05-04 13:24 | 36.21429 | 5.75579 | 22017 ft | 423 kts | 309° |
| 2026-05-04 13:24 | 36.23445 | 5.72871 | 22026 ft | 432 kts | 309° |
| 2026-05-04 13:25 | 36.27593 | 5.67291 | 22035 ft | 446 kts | 309° |
| 2026-05-04 13:25 | 36.29693 | 5.64468 | 22017 ft | 444 kts | 309° |
| 2026-05-04 13:25 | 36.31778 | 5.61664 | 22063 ft | 442 kts | 308° |
| 2026-05-04 13:25 | 36.33834 | 5.58896 | 22067 ft | 441 kts | 309° |
| 2026-05-04 13:26 | 36.35916 | 5.56089 | 22092 ft | 442 kts | 308° |
| 2026-05-04 13:26 | 36.37998 | 5.53278 | 22075 ft | 442 kts | 308° |
| 2026-05-04 13:26 | 36.40079 | 5.50465 | 22065 ft | 443 kts | 308° |
| 2026-05-04 13:26 | 36.42164 | 5.47644 | 22069 ft | 443 kts | 308° |
| 2026-05-04 13:27 | 36.44246 | 5.44825 | 22062 ft | 443 kts | 308° |
| 2026-05-04 13:27 | 36.46328 | 5.42004 | 22069 ft | 444 kts | 308° |
| 2026-05-04 13:27 | 36.48420 | 5.39166 | 22030 ft | 444 kts | 308° |
| 2026-05-04 13:27 | 36.50508 | 5.36334 | 22030 ft | 443 kts | 308° |
| 2026-05-04 13:28 | 36.52589 | 5.33510 | 22020 ft | 442 kts | 308° |
| 2026-05-04 13:28 | 36.54654 | 5.30703 | 22016 ft | 437 kts | 308° |
| 2026-05-04 13:28 | 36.56722 | 5.27887 | 22038 ft | 442 kts | 308° |
| 2026-05-04 13:28 | 36.58771 | 5.25092 | 22024 ft | 443 kts | 308° |
| 2026-05-04 13:29 | 36.60847 | 5.22275 | 22065 ft | 442 kts | 308° |
| 2026-05-04 13:29 | 36.62931 | 5.19427 | 22071 ft | 446 kts | 308° |
| 2026-05-04 13:29 | 36.65032 | 5.16550 | 22064 ft | 448 kts | 308° |
| 2026-05-04 13:29 | 36.67116 | 5.13703 | 22050 ft | 443 kts | 308° |
| 2026-05-04 13:30 | 36.69182 | 5.10876 | 22052 ft | 440 kts | 308° |
| 2026-05-04 13:30 | 36.71047 | 5.07870 | 22047 ft | 439 kts | 300° |
| 2026-05-04 13:30 | 36.72538 | 5.04560 | 22056 ft | 437 kts | 291° |
| 2026-05-04 13:30 | 36.73648 | 5.01041 | 22054 ft | 436 kts | 288° |
| 2026-05-04 13:31 | 36.74708 | 4.97493 | 22048 ft | 437 kts | 287° |
| 2026-05-04 13:31 | 36.75772 | 4.93941 | 22048 ft | 436 kts | 288° |
| 2026-05-04 13:31 | 36.76825 | 4.90448 | 22036 ft | 435 kts | 288° |
| 2026-05-04 13:31 | 36.77907 | 4.86880 | 22031 ft | 434 kts | 288° |
| 2026-05-04 13:32 | 36.78977 | 4.83366 | 22032 ft | 432 kts | 288° |
| 2026-05-04 13:32 | 36.80032 | 4.79912 | 22025 ft | 431 kts | 288° |
| 2026-05-04 13:32 | 36.81099 | 4.76418 | 22015 ft | 431 kts | 288° |
| 2026-05-04 13:32 | 36.82167 | 4.72918 | 22012 ft | 431 kts | 288° |
| 2026-05-04 13:33 | 36.83235 | 4.69411 | 22018 ft | 431 kts | 288° |
| 2026-05-04 13:33 | 36.84303 | 4.65901 | 22008 ft | 431 kts | 288° |
| 2026-05-04 13:33 | 36.85368 | 4.62398 | 22001 ft | 431 kts | 288° |
| 2026-05-04 13:33 | 36.86433 | 4.58889 | 22009 ft | 431 kts | 288° |
| 2026-05-04 13:34 | 36.87493 | 4.55391 | 22021 ft | 431 kts | 287° |
| 2026-05-04 13:34 | 36.88554 | 4.51890 | 22012 ft | 428 kts | 287° |
| 2026-05-04 13:34 | 36.89578 | 4.48511 | 21367 ft | 418 kts | 287° |
| 2026-05-04 13:34 | 36.90597 | 4.45141 | 20655 ft | 411 kts | 287° |
| 2026-05-04 13:35 | 36.91596 | 4.41830 | 19947 ft | 405 kts | 287° |
| 2026-05-04 13:35 | 36.93559 | 4.35312 | 18460 ft | 397 kts | 287° |
| 2026-05-04 13:35 | 36.94526 | 4.32092 | 17655 ft | 393 kts | 287° |
| 2026-05-04 13:36 | 36.95479 | 4.28915 | 16886 ft | 388 kts | 287° |
| 2026-05-04 13:36 | 36.96423 | 4.25769 | 16160 ft | 383 kts | 287° |
| 2026-05-04 13:36 | 36.97353 | 4.22665 | 15459 ft | 379 kts | 287° |
| 2026-05-04 13:36 | 36.98271 | 4.19595 | 14767 ft | 374 kts | 287° |
| 2026-05-04 13:37 | 36.99178 | 4.16559 | 14091 ft | 370 kts | 286° |
| 2026-05-04 13:37 | 37.00075 | 4.13553 | 13272 ft | 369 kts | 286° |
| 2026-05-04 13:37 | 37.00969 | 4.10554 | 12538 ft | 365 kts | 286° |
| 2026-05-04 13:37 | 37.01555 | 4.08588 | 12070 ft | 363 kts | 286° |
| 2026-05-04 13:38 | 37.02725 | 4.04656 | 11175 ft | 358 kts | 286° |
| 2026-05-04 13:38 | 37.03579 | 4.01792 | 11003 ft | 342 kts | 286° |
| 2026-05-04 13:38 | 37.04390 | 3.99068 | 10840 ft | 327 kts | 285° |
| 2026-05-04 13:38 | 37.05158 | 3.96487 | 10718 ft | 313 kts | 285° |
| 2026-05-04 13:39 | 37.05895 | 3.93983 | 10584 ft | 300 kts | 283° |
| 2026-05-04 13:39 | 37.06131 | 3.91501 | 10460 ft | 280 kts | 260° |
| 2026-05-04 13:39 | 37.05658 | 3.89218 | 10390 ft | 265 kts | 246° |
| 2026-05-04 13:39 | 37.04780 | 3.87226 | 10293 ft | 260 kts | 232° |
| 2026-05-04 13:40 | 37.03561 | 3.85565 | 10208 ft | 259 kts | 226° |
| 2026-05-04 13:40 | 37.02257 | 3.84005 | 10105 ft | 257 kts | 224° |
| 2026-05-04 13:40 | 37.00983 | 3.82518 | 9994 ft | 249 kts | 224° |
| 2026-05-04 13:40 | 36.99724 | 3.81047 | 9722 ft | 247 kts | 225° |
| 2026-05-04 13:41 | 36.98477 | 3.79582 | 9431 ft | 244 kts | 225° |
| 2026-05-04 13:41 | 36.97659 | 3.78619 | 9233 ft | 243 kts | 225° |
| 2026-05-04 13:41 | 36.96434 | 3.77172 | 8946 ft | 241 kts | 225° |
| 2026-05-04 13:42 | 36.94013 | 3.74305 | 8369 ft | 238 kts | 225° |
| 2026-05-04 13:42 | 36.92811 | 3.72878 | 8058 ft | 238 kts | 224° |
| 2026-05-04 13:42 | 36.91616 | 3.71461 | 7786 ft | 237 kts | 224° |
| 2026-05-04 13:42 | 36.90421 | 3.70043 | 7511 ft | 236 kts | 223° |
| 2026-05-04 13:43 | 36.89236 | 3.68637 | 7237 ft | 235 kts | 223° |
| 2026-05-04 13:43 | 36.88048 | 3.67227 | 6958 ft | 234 kts | 223° |
| 2026-05-04 13:43 | 36.86880 | 3.65842 | 6700 ft | 233 kts | 223° |
| 2026-05-04 13:43 | 36.85704 | 3.64448 | 6428 ft | 233 kts | 223° |
| 2026-05-04 13:44 | 36.84533 | 3.63060 | 6147 ft | 232 kts | 222° |
| 2026-05-04 13:44 | 36.83361 | 3.61671 | 5861 ft | 231 kts | 222° |
| 2026-05-04 13:44 | 36.82194 | 3.60289 | 5585 ft | 231 kts | 222° |
| 2026-05-04 13:44 | 36.81028 | 3.58910 | 5313 ft | 231 kts | 222° |
| 2026-05-04 13:45 | 36.79862 | 3.57532 | 5042 ft | 231 kts | 221° |
| 2026-05-04 13:45 | 36.78747 | 3.56092 | 4854 ft | 233 kts | 226° |
| 2026-05-04 13:45 | 36.77656 | 3.54539 | 4631 ft | 243 kts | 226° |
| 2026-05-04 13:45 | 36.76551 | 3.52952 | 4427 ft | 239 kts | 226° |
| 2026-05-04 13:46 | 36.75460 | 3.51389 | 4247 ft | 239 kts | 226° |
| 2026-05-04 13:46 | 36.74359 | 3.49819 | 4026 ft | 240 kts | 226° |
| 2026-05-04 13:46 | 36.73271 | 3.48226 | 3819 ft | 243 kts | 227° |
| 2026-05-04 13:46 | 36.72168 | 3.46671 | 3621 ft | 240 kts | 225° |
| 2026-05-04 13:47 | 36.71063 | 3.45121 | 3418 ft | 239 kts | 226° |
| 2026-05-04 13:47 | 36.69970 | 3.43580 | 3208 ft | 235 kts | 226° |
| 2026-05-04 13:47 | 36.68907 | 3.42061 | 3014 ft | 230 kts | 232° |
| 2026-05-04 13:47 | 36.68371 | 3.40233 | 2821 ft | 227 kts | 269° |
| 2026-05-04 13:48 | 36.68490 | 3.38297 | 2676 ft | 222 kts | 274° |
| 2026-05-04 13:48 | 36.68599 | 3.36398 | 2495 ft | 218 kts | 274° |
| 2026-05-04 13:48 | 36.68696 | 3.34511 | 2233 ft | 217 kts | 275° |
| 2026-05-04 13:48 | 36.68780 | 3.32641 | 1933 ft | 215 kts | 275° |
| 2026-05-04 13:49 | 36.68859 | 3.30834 | 1646 ft | 202 kts | 275° |
| 2026-05-04 13:49 | 36.68923 | 3.29159 | 1381 ft | 185 kts | 272° |
| 2026-05-04 13:49 | 36.68959 | 3.27617 | 1149 ft | 171 kts | 271° |
| 2026-05-04 13:49 | 36.68991 | 3.26225 | 935 ft | 156 kts | 271° |
| 2026-05-04 13:50 | 36.69021 | 3.24929 | 762 ft | 143 kts | 272° |
| 2026-05-04 13:50 | 36.69050 | 3.23730 | 586 ft | 135 kts | 274° |
| 2026-05-04 13:50 | 36.69079 | 3.22529 | 398 ft | 140 kts | 275° |
| 2026-05-04 13:50 | 36.69104 | 3.21317 | 193 ft | 138 kts | 275° |
| 2026-05-04 13:51 | 36.69130 | 3.20134 | 84 ft | 135 kts | 276° |
| 2026-05-04 13:51 | 36.69168 | 3.18964 | 78 ft | 136 kts | 270° |
| 2026-05-04 13:51 | 36.69182 | 3.17979 | 72 ft | 82 kts | 270° |
| 2026-05-04 13:51 | 36.69196 | 3.17450 | 77 ft | 51 kts | 274° |
| 2026-05-04 13:52 | 36.69344 | 3.17132 | 70 ft | 20 kts | 43° |
| 2026-05-04 13:52 | 36.69375 | 3.17280 | 70 ft | 17 kts | 91° |
| 2026-05-04 13:52 | 36.69366 | 3.17426 | 70 ft | 17 kts | 92° |
| 2026-05-04 13:53 | 36.69363 | 3.17568 | 62 ft | 16 kts | 91° |
| 2026-05-04 13:53 | 36.69361 | 3.17703 | 70 ft | 15 kts | 91° |
| 2026-05-04 13:53 | 36.69357 | 3.17828 | 67 ft | 14 kts | 92° |
| 2026-05-04 13:54 | 36.69352 | 3.18061 | 70 ft | 13 kts | 91° |
| 2026-05-04 13:54 | 36.69350 | 3.18172 | 70 ft | 13 kts | 91° |
| 2026-05-04 13:54 | 36.69349 | 3.18386 | 70 ft | 12 kts | 90° |
| 2026-05-04 13:55 | 36.69343 | 3.18488 | 70 ft | 12 kts | 97° |
| 2026-05-04 13:55 | 36.69336 | 3.18683 | 70 ft | 11 kts | 92° |
| 2026-05-04 13:55 | 36.69333 | 3.18778 | 63 ft | 11 kts | 92° |
| 2026-05-04 13:56 | 36.69330 | 3.18869 | 68 ft | 10 kts | 92° |
| 2026-05-04 13:56 | 36.69328 | 3.18958 | 70 ft | 10 kts | 91° |
| 2026-05-04 13:56 | 36.69326 | 3.19129 | 70 ft | 10 kts | 92° |
| 2026-05-04 13:57 | 36.69322 | 3.19229 | 66 ft | 14 kts | 90° |
| 2026-05-04 13:57 | 36.69320 | 3.19367 | 64 ft | 18 kts | 91° |
| 2026-05-04 13:58 | 36.69309 | 3.19819 | 69 ft | 16 kts | 91° |
| 2026-05-04 13:58 | 36.69453 | 3.19975 | 64 ft | 15 kts | 84° |
| 2026-05-04 13:58 | 36.69452 | 3.20106 | 69 ft | 15 kts | 91° |
| 2026-05-04 13:59 | 36.69450 | 3.20231 | 69 ft | 14 kts | 91° |
| 2026-05-04 13:59 | 36.69461 | 3.20347 | 65 ft | 14 kts | 49° |
| 2026-05-04 13:59 | 36.69637 | 3.20381 | 62 ft | 13 kts | 40° |
| 2026-05-04 14:00 | 36.69670 | 3.20437 | 65 ft | 7 kts | 54° |
| 2026-05-04 14:00 | 36.69700 | 3.20487 | 65 ft | 0 kts | 51° |
| 2026-05-04 14:00 | 36.69705 | 3.20495 | 67 ft | 4 kts | 50° |
| 2026-05-04 14:01 | 36.69713 | 3.20506 | 61 ft | 0 kts | 51° |